sensor_id;sensor_type;location;lat;lon;timestamp;P1;durP1;ratioP1;P2;durP2;ratioP2
77022;SDS011;65952;51.440;-2.054;2023-05-10T00:01:07;18.50;;;7.32;;
77022;SDS011;65952;51.440;-2.054;2023-05-10T00:03:32;17.10;;;7.45;;
77022;SDS011;65952;51.440;-2.054;2023-05-10T00:05:58;21.17;;;7.45;;
77022;SDS011;65952;51.440;-2.054;2023-05-10T00:08:24;20.05;;;7.15;;
77022;SDS011;65952;51.440;-2.054;2023-05-10T00:10:49;17.73;;;7.00;;
77022;SDS011;65952;51.440;-2.054;2023-05-10T00:13:15;17.05;;;7.00;;
77022;SDS011;65952;51.440;-2.054;2023-05-10T00:15:40;19.55;;;7.10;;
77022;SDS011;65952;51.440;-2.054;2023-05-10T00:18:06;21.98;;;7.88;;
77022;SDS011;65952;51.440;-2.054;2023-05-10T00:20:32;17.52;;;6.75;;
77022;SDS011;65952;51.440;-2.054;2023-05-10T00:26:25;20.05;;;8.07;;
77022;SDS011;65952;51.440;-2.054;2023-05-10T00:28:51;19.23;;;6.75;;
77022;SDS011;65952;51.440;-2.054;2023-05-10T00:31:16;17.50;;;7.10;;
77022;SDS011;65952;51.440;-2.054;2023-05-10T00:33:42;14.88;;;6.15;;
77022;SDS011;65952;51.440;-2.054;2023-05-10T00:39:29;16.40;;;6.43;;
77022;SDS011;65952;51.440;-2.054;2023-05-10T00:41:54;20.92;;;7.75;;
77022;SDS011;65952;51.440;-2.054;2023-05-10T00:44:20;21.23;;;6.80;;
77022;SDS011;65952;51.440;-2.054;2023-05-10T00:46:46;16.33;;;6.65;;
77022;SDS011;65952;51.440;-2.054;2023-05-10T00:49:12;22.73;;;8.05;;
77022;SDS011;65952;51.440;-2.054;2023-05-10T00:51:38;18.13;;;7.10;;
77022;SDS011;65952;51.440;-2.054;2023-05-10T00:54:04;20.08;;;7.43;;
77022;SDS011;65952;51.440;-2.054;2023-05-10T00:56:30;19.30;;;7.20;;
77022;SDS011;65952;51.440;-2.054;2023-05-10T00:58:56;21.80;;;7.70;;
77022;SDS011;65952;51.440;-2.054;2023-05-10T01:01:22;24.88;;;8.77;;
77022;SDS011;65952;51.440;-2.054;2023-05-10T01:06:57;22.25;;;9.40;;
77022;SDS011;65952;51.440;-2.054;2023-05-10T01:09:22;23.00;;;9.95;;
77022;SDS011;65952;51.440;-2.054;2023-05-10T01:11:51;22.90;;;9.88;;
77022;SDS011;65952;51.440;-2.054;2023-05-10T01:14:17;27.48;;;10.32;;
77022;SDS011;65952;51.440;-2.054;2023-05-10T01:16:44;32.90;;;11.02;;
77022;SDS011;65952;51.440;-2.054;2023-05-10T01:27:59;29.65;;;11.20;;
77022;SDS011;65952;51.440;-2.054;2023-05-10T01:37:09;27.98;;;11.75;;
77022;SDS011;65952;51.440;-2.054;2023-05-10T01:39:45;28.08;;;11.70;;
77022;SDS011;65952;51.440;-2.054;2023-05-10T01:42:16;30.00;;;12.65;;
77022;SDS011;65952;51.440;-2.054;2023-05-10T01:44:50;29.65;;;11.77;;
77022;SDS011;65952;51.440;-2.054;2023-05-10T01:50:59;31.77;;;12.23;;
77022;SDS011;65952;51.440;-2.054;2023-05-10T01:53:25;33.80;;;14.88;;
77022;SDS011;65952;51.440;-2.054;2023-05-10T01:55:53;39.95;;;13.85;;
77022;SDS011;65952;51.440;-2.054;2023-05-10T01:58:22;30.92;;;12.68;;
77022;SDS011;65952;51.440;-2.054;2023-05-10T02:00:54;35.22;;;13.32;;
77022;SDS011;65952;51.440;-2.054;2023-05-10T02:03:23;31.95;;;13.57;;
77022;SDS011;65952;51.440;-2.054;2023-05-10T02:05:51;33.45;;;13.40;;
77022;SDS011;65952;51.440;-2.054;2023-05-10T02:08:19;33.13;;;13.27;;
77022;SDS011;65952;51.440;-2.054;2023-05-10T02:10:46;33.70;;;13.57;;
77022;SDS011;65952;51.440;-2.054;2023-05-10T02:13:14;36.63;;;13.73;;
77022;SDS011;65952;51.440;-2.054;2023-05-10T02:15:42;31.95;;;12.15;;
77022;SDS011;65952;51.440;-2.054;2023-05-10T02:18:08;33.88;;;12.35;;
77022;SDS011;65952;51.440;-2.054;2023-05-10T02:20:36;33.03;;;13.77;;
77022;SDS011;65952;51.440;-2.054;2023-05-10T02:23:03;30.52;;;13.15;;
77022;SDS011;65952;51.440;-2.054;2023-05-10T02:25:30;34.92;;;14.38;;
77022;SDS011;65952;51.440;-2.054;2023-05-10T02:30:42;37.45;;;12.88;;
77022;SDS011;65952;51.440;-2.054;2023-05-10T02:33:08;35.25;;;13.55;;
77022;SDS011;65952;51.440;-2.054;2023-05-10T02:35:34;29.05;;;12.05;;
77022;SDS011;65952;51.440;-2.054;2023-05-10T02:38:09;29.65;;;13.30;;
77022;SDS011;65952;51.440;-2.054;2023-05-10T02:40:36;27.05;;;12.95;;
77022;SDS011;65952;51.440;-2.054;2023-05-10T02:45:52;34.42;;;13.15;;
77022;SDS011;65952;51.440;-2.054;2023-05-10T02:48:18;39.10;;;13.52;;
77022;SDS011;65952;51.440;-2.054;2023-05-10T02:50:44;35.85;;;13.65;;
77022;SDS011;65952;51.440;-2.054;2023-05-10T02:53:15;27.80;;;12.85;;
77022;SDS011;65952;51.440;-2.054;2023-05-10T02:55:44;27.55;;;12.27;;
77022;SDS011;65952;51.440;-2.054;2023-05-10T02:58:14;33.97;;;13.95;;
77022;SDS011;65952;51.440;-2.054;2023-05-10T03:00:39;33.45;;;14.75;;
77022;SDS011;65952;51.440;-2.054;2023-05-10T03:03:05;37.33;;;14.80;;
77022;SDS011;65952;51.440;-2.054;2023-05-10T03:05:31;34.33;;;13.93;;
77022;SDS011;65952;51.440;-2.054;2023-05-10T03:07:57;31.55;;;13.43;;
77022;SDS011;65952;51.440;-2.054;2023-05-10T03:14:02;39.90;;;15.05;;
77022;SDS011;65952;51.440;-2.054;2023-05-10T03:16:35;32.45;;;14.00;;
77022;SDS011;65952;51.440;-2.054;2023-05-10T03:19:14;42.72;;;14.90;;
77022;SDS011;65952;51.440;-2.054;2023-05-10T03:21:41;33.85;;;14.10;;
77022;SDS011;65952;51.440;-2.054;2023-05-10T03:24:12;37.03;;;15.07;;
77022;SDS011;65952;51.440;-2.054;2023-05-10T03:30:02;35.08;;;13.38;;
77022;SDS011;65952;51.440;-2.054;2023-05-10T03:32:28;31.85;;;14.20;;
77022;SDS011;65952;51.440;-2.054;2023-05-10T03:34:56;36.38;;;14.65;;
77022;SDS011;65952;51.440;-2.054;2023-05-10T03:37:22;37.60;;;14.98;;
77022;SDS011;65952;51.440;-2.054;2023-05-10T03:39:47;26.25;;;13.77;;
77022;SDS011;65952;51.440;-2.054;2023-05-10T03:42:13;41.08;;;14.93;;
77022;SDS011;65952;51.440;-2.054;2023-05-10T03:44:38;33.85;;;14.10;;
77022;SDS011;65952;51.440;-2.054;2023-05-10T03:47:04;38.47;;;14.45;;
77022;SDS011;65952;51.440;-2.054;2023-05-10T03:49:30;35.50;;;12.55;;
77022;SDS011;65952;51.440;-2.054;2023-05-10T03:51:55;28.58;;;12.07;;
77022;SDS011;65952;51.440;-2.054;2023-05-10T03:54:21;27.33;;;12.55;;
77022;SDS011;65952;51.440;-2.054;2023-05-10T03:56:46;29.55;;;11.35;;
77022;SDS011;65952;51.440;-2.054;2023-05-10T03:59:13;28.65;;;11.50;;
77022;SDS011;65952;51.440;-2.054;2023-05-10T04:01:38;28.58;;;12.10;;
77022;SDS011;65952;51.440;-2.054;2023-05-10T04:04:04;28.40;;;10.73;;
77022;SDS011;65952;51.440;-2.054;2023-05-10T04:06:32;29.42;;;12.55;;
77022;SDS011;65952;51.440;-2.054;2023-05-10T04:08:58;28.17;;;10.65;;
77022;SDS011;65952;51.440;-2.054;2023-05-10T04:11:25;25.42;;;10.55;;
77022;SDS011;65952;51.440;-2.054;2023-05-10T04:13:50;25.55;;;9.98;;
77022;SDS011;65952;51.440;-2.054;2023-05-10T04:16:16;22.52;;;9.43;;
77022;SDS011;65952;51.440;-2.054;2023-05-10T04:18:42;23.83;;;10.40;;
77022;SDS011;65952;51.440;-2.054;2023-05-10T04:24:35;27.00;;;10.18;;
77022;SDS011;65952;51.440;-2.054;2023-05-10T04:27:01;23.63;;;9.88;;
77022;SDS011;65952;51.440;-2.054;2023-05-10T04:29:26;30.20;;;11.65;;
77022;SDS011;65952;51.440;-2.054;2023-05-10T04:31:52;22.50;;;9.45;;
77022;SDS011;65952;51.440;-2.054;2023-05-10T04:34:18;26.33;;;9.82;;
77022;SDS011;65952;51.440;-2.054;2023-05-10T04:40:07;24.88;;;10.75;;
77022;SDS011;65952;51.440;-2.054;2023-05-10T04:42:33;28.35;;;10.85;;
77022;SDS011;65952;51.440;-2.054;2023-05-10T04:44:59;31.77;;;10.80;;
77022;SDS011;65952;51.440;-2.054;2023-05-10T04:47:24;27.35;;;9.93;;
77022;SDS011;65952;51.440;-2.054;2023-05-10T04:49:50;26.98;;;10.02;;
77022;SDS011;65952;51.440;-2.054;2023-05-10T04:52:15;24.83;;;10.88;;
77022;SDS011;65952;51.440;-2.054;2023-05-10T04:54:42;25.35;;;9.60;;
77022;SDS011;65952;51.440;-2.054;2023-05-10T04:57:07;31.48;;;9.82;;
77022;SDS011;65952;51.440;-2.054;2023-05-10T04:59:35;23.85;;;9.27;;
77022;SDS011;65952;51.440;-2.054;2023-05-10T05:02:02;32.60;;;10.60;;
77022;SDS011;65952;51.440;-2.054;2023-05-10T05:04:29;24.98;;;8.38;;
77022;SDS011;65952;51.440;-2.054;2023-05-10T05:06:55;20.55;;;8.65;;
77022;SDS011;65952;51.440;-2.054;2023-05-10T05:09:20;24.67;;;9.25;;
77022;SDS011;65952;51.440;-2.054;2023-05-10T05:11:46;25.70;;;10.40;;
77022;SDS011;65952;51.440;-2.054;2023-05-10T05:14:11;20.40;;;8.60;;
77022;SDS011;65952;51.440;-2.054;2023-05-10T05:16:37;20.60;;;8.80;;
77022;SDS011;65952;51.440;-2.054;2023-05-10T05:19:02;22.15;;;8.57;;
77022;SDS011;65952;51.440;-2.054;2023-05-10T05:21:27;24.77;;;9.15;;
77022;SDS011;65952;51.440;-2.054;2023-05-10T05:23:53;22.33;;;8.20;;
77022;SDS011;65952;51.440;-2.054;2023-05-10T05:26:19;22.70;;;8.80;;
77022;SDS011;65952;51.440;-2.054;2023-05-10T05:28:44;27.23;;;9.48;;
77022;SDS011;65952;51.440;-2.054;2023-05-10T05:31:09;26.35;;;9.35;;
77022;SDS011;65952;51.440;-2.054;2023-05-10T05:33:35;25.70;;;8.23;;
77022;SDS011;65952;51.440;-2.054;2023-05-10T05:36:01;23.25;;;7.53;;
77022;SDS011;65952;51.440;-2.054;2023-05-10T05:38:28;21.10;;;7.95;;
77022;SDS011;65952;51.440;-2.054;2023-05-10T05:40:53;23.73;;;7.68;;
77022;SDS011;65952;51.440;-2.054;2023-05-10T05:43:19;24.38;;;8.35;;
77022;SDS011;65952;51.440;-2.054;2023-05-10T05:45:44;27.75;;;9.25;;
77022;SDS011;65952;51.440;-2.054;2023-05-10T05:48:10;30.35;;;8.70;;
77022;SDS011;65952;51.440;-2.054;2023-05-10T05:50:35;22.30;;;8.13;;
77022;SDS011;65952;51.440;-2.054;2023-05-10T05:53:01;25.45;;;9.52;;
77022;SDS011;65952;51.440;-2.054;2023-05-10T05:55:27;18.75;;;7.97;;
77022;SDS011;65952;51.440;-2.054;2023-05-10T05:57:52;20.42;;;7.78;;
77022;SDS011;65952;51.440;-2.054;2023-05-10T06:00:18;22.10;;;7.55;;
77022;SDS011;65952;51.440;-2.054;2023-05-10T06:02:44;21.20;;;7.78;;
77022;SDS011;65952;51.440;-2.054;2023-05-10T06:05:09;22.05;;;7.80;;
77022;SDS011;65952;51.440;-2.054;2023-05-10T06:07:35;23.67;;;7.95;;
77022;SDS011;65952;51.440;-2.054;2023-05-10T06:10:00;18.33;;;7.57;;
77022;SDS011;65952;51.440;-2.054;2023-05-10T06:12:26;18.23;;;7.85;;
77022;SDS011;65952;51.440;-2.054;2023-05-10T06:14:51;20.70;;;8.77;;
77022;SDS011;65952;51.440;-2.054;2023-05-10T06:17:17;20.80;;;7.72;;
77022;SDS011;65952;51.440;-2.054;2023-05-10T06:19:43;24.90;;;7.80;;
77022;SDS011;65952;51.440;-2.054;2023-05-10T06:22:08;18.40;;;7.78;;
77022;SDS011;65952;51.440;-2.054;2023-05-10T06:24:34;18.17;;;7.22;;
77022;SDS011;65952;51.440;-2.054;2023-05-10T06:26:59;15.38;;;6.85;;
77022;SDS011;65952;51.440;-2.054;2023-05-10T06:29:25;18.08;;;8.00;;
77022;SDS011;65952;51.440;-2.054;2023-05-10T06:31:51;16.95;;;6.82;;
77022;SDS011;65952;51.440;-2.054;2023-05-10T06:34:16;15.43;;;6.50;;
77022;SDS011;65952;51.440;-2.054;2023-05-10T06:36:41;12.85;;;6.63;;
77022;SDS011;65952;51.440;-2.054;2023-05-10T06:39:07;13.10;;;6.20;;
77022;SDS011;65952;51.440;-2.054;2023-05-10T06:41:32;14.40;;;6.35;;
77022;SDS011;65952;51.440;-2.054;2023-05-10T06:43:58;19.25;;;7.53;;
77022;SDS011;65952;51.440;-2.054;2023-05-10T06:46:23;17.15;;;7.68;;
77022;SDS011;65952;51.440;-2.054;2023-05-10T06:48:49;20.52;;;7.72;;
77022;SDS011;65952;51.440;-2.054;2023-05-10T06:51:14;17.05;;;7.10;;
77022;SDS011;65952;51.440;-2.054;2023-05-10T06:53:39;17.15;;;6.95;;
77022;SDS011;65952;51.440;-2.054;2023-05-10T06:56:05;16.58;;;6.25;;
77022;SDS011;65952;51.440;-2.054;2023-05-10T06:58:31;16.05;;;6.68;;
77022;SDS011;65952;51.440;-2.054;2023-05-10T07:01:03;14.23;;;6.22;;
77022;SDS011;65952;51.440;-2.054;2023-05-10T07:03:29;16.27;;;6.45;;
77022;SDS011;65952;51.440;-2.054;2023-05-10T07:05:59;14.20;;;5.88;;
77022;SDS011;65952;51.440;-2.054;2023-05-10T07:08:29;12.38;;;5.22;;
77022;SDS011;65952;51.440;-2.054;2023-05-10T07:13:41;13.40;;;5.22;;
77022;SDS011;65952;51.440;-2.054;2023-05-10T07:16:09;14.18;;;4.90;;
77022;SDS011;65952;51.440;-2.054;2023-05-10T07:18:35;12.75;;;5.75;;
77022;SDS011;65952;51.440;-2.054;2023-05-10T07:21:01;10.57;;;5.00;;
77022;SDS011;65952;51.440;-2.054;2023-05-10T07:23:26;12.60;;;5.07;;
77022;SDS011;65952;51.440;-2.054;2023-05-10T07:25:52;11.02;;;4.82;;
77022;SDS011;65952;51.440;-2.054;2023-05-10T07:28:18;12.60;;;4.93;;
77022;SDS011;65952;51.440;-2.054;2023-05-10T07:30:44;11.23;;;4.78;;
77022;SDS011;65952;51.440;-2.054;2023-05-10T07:33:10;15.07;;;4.82;;
77022;SDS011;65952;51.440;-2.054;2023-05-10T07:35:39;7.57;;;3.80;;
77022;SDS011;65952;51.440;-2.054;2023-05-10T07:38:05;11.15;;;4.03;;
77022;SDS011;65952;51.440;-2.054;2023-05-10T07:43:52;12.90;;;3.85;;
77022;SDS011;65952;51.440;-2.054;2023-05-10T07:46:18;11.00;;;3.65;;
77022;SDS011;65952;51.440;-2.054;2023-05-10T07:48:44;12.07;;;4.30;;
77022;SDS011;65952;51.440;-2.054;2023-05-10T07:51:10;10.95;;;3.92;;
77022;SDS011;65952;51.440;-2.054;2023-05-10T07:53:35;10.13;;;3.63;;
77022;SDS011;65952;51.440;-2.054;2023-05-10T07:56:19;10.13;;;3.78;;
77022;SDS011;65952;51.440;-2.054;2023-05-10T07:58:55;10.93;;;3.78;;
77022;SDS011;65952;51.440;-2.054;2023-05-10T08:01:21;11.20;;;3.33;;
77022;SDS011;65952;51.440;-2.054;2023-05-10T08:03:48;9.23;;;3.70;;
77022;SDS011;65952;51.440;-2.054;2023-05-10T08:06:16;13.75;;;3.90;;
77022;SDS011;65952;51.440;-2.054;2023-05-10T08:08:43;13.05;;;3.35;;
77022;SDS011;65952;51.440;-2.054;2023-05-10T08:11:10;13.95;;;3.78;;
77022;SDS011;65952;51.440;-2.054;2023-05-10T08:13:35;10.48;;;3.33;;
77022;SDS011;65952;51.440;-2.054;2023-05-10T08:16:01;11.80;;;3.67;;
77022;SDS011;65952;51.440;-2.054;2023-05-10T08:18:27;13.57;;;4.10;;
77022;SDS011;65952;51.440;-2.054;2023-05-10T08:20:52;10.13;;;3.72;;
77022;SDS011;65952;51.440;-2.054;2023-05-10T08:23:17;11.65;;;3.42;;
77022;SDS011;65952;51.440;-2.054;2023-05-10T08:25:43;12.90;;;3.88;;
77022;SDS011;65952;51.440;-2.054;2023-05-10T08:28:08;13.85;;;3.92;;
77022;SDS011;65952;51.440;-2.054;2023-05-10T08:30:34;10.57;;;3.58;;
77022;SDS011;65952;51.440;-2.054;2023-05-10T08:32:59;10.80;;;3.63;;
77022;SDS011;65952;51.440;-2.054;2023-05-10T08:35:24;12.13;;;3.55;;
77022;SDS011;65952;51.440;-2.054;2023-05-10T08:37:50;10.07;;;3.28;;
77022;SDS011;65952;51.440;-2.054;2023-05-10T08:40:16;13.30;;;3.60;;
77022;SDS011;65952;51.440;-2.054;2023-05-10T08:42:45;10.23;;;3.58;;
77022;SDS011;65952;51.440;-2.054;2023-05-10T08:45:16;9.13;;;3.03;;
77022;SDS011;65952;51.440;-2.054;2023-05-10T08:47:44;11.82;;;3.58;;
77022;SDS011;65952;51.440;-2.054;2023-05-10T08:50:10;10.45;;;3.42;;
77022;SDS011;65952;51.440;-2.054;2023-05-10T08:52:37;9.50;;;3.22;;
77022;SDS011;65952;51.440;-2.054;2023-05-10T08:55:05;8.35;;;3.25;;
77022;SDS011;65952;51.440;-2.054;2023-05-10T08:57:31;8.52;;;3.15;;
77022;SDS011;65952;51.440;-2.054;2023-05-10T08:59:56;9.52;;;3.50;;
77022;SDS011;65952;51.440;-2.054;2023-05-10T09:02:23;11.98;;;3.75;;
77022;SDS011;65952;51.440;-2.054;2023-05-10T09:04:49;7.95;;;3.30;;
77022;SDS011;65952;51.440;-2.054;2023-05-10T09:07:14;7.90;;;3.03;;
77022;SDS011;65952;51.440;-2.054;2023-05-10T09:09:40;8.23;;;3.00;;
77022;SDS011;65952;51.440;-2.054;2023-05-10T09:12:06;12.77;;;3.58;;
77022;SDS011;65952;51.440;-2.054;2023-05-10T09:14:36;11.52;;;4.82;;
77022;SDS011;65952;51.440;-2.054;2023-05-10T09:17:02;8.65;;;3.53;;
77022;SDS011;65952;51.440;-2.054;2023-05-10T09:19:28;9.93;;;3.78;;
77022;SDS011;65952;51.440;-2.054;2023-05-10T09:21:54;8.32;;;3.40;;
77022;SDS011;65952;51.440;-2.054;2023-05-10T09:24:20;13.95;;;3.90;;
77022;SDS011;65952;51.440;-2.054;2023-05-10T09:26:50;11.73;;;3.97;;
77022;SDS011;65952;51.440;-2.054;2023-05-10T09:29:16;8.52;;;3.20;;
77022;SDS011;65952;51.440;-2.054;2023-05-10T09:31:45;10.65;;;3.15;;
77022;SDS011;65952;51.440;-2.054;2023-05-10T09:34:29;8.45;;;2.83;;
77022;SDS011;65952;51.440;-2.054;2023-05-10T09:36:59;8.30;;;2.95;;
77022;SDS011;65952;51.440;-2.054;2023-05-10T09:39:33;7.43;;;2.72;;
77022;SDS011;65952;51.440;-2.054;2023-05-10T09:41:59;9.68;;;3.40;;
77022;SDS011;65952;51.440;-2.054;2023-05-10T09:44:28;11.82;;;3.50;;
77022;SDS011;65952;51.440;-2.054;2023-05-10T09:46:54;8.07;;;3.30;;
77022;SDS011;65952;51.440;-2.054;2023-05-10T09:49:20;8.20;;;3.15;;
77022;SDS011;65952;51.440;-2.054;2023-05-10T09:51:47;8.70;;;3.55;;
77022;SDS011;65952;51.440;-2.054;2023-05-10T09:54:16;7.97;;;3.10;;
77022;SDS011;65952;51.440;-2.054;2023-05-10T09:56:41;8.52;;;3.40;;
77022;SDS011;65952;51.440;-2.054;2023-05-10T09:59:11;8.48;;;3.20;;
77022;SDS011;65952;51.440;-2.054;2023-05-10T10:01:37;11.95;;;3.25;;
77022;SDS011;65952;51.440;-2.054;2023-05-10T10:04:04;9.55;;;3.50;;
77022;SDS011;65952;51.440;-2.054;2023-05-10T10:06:34;8.05;;;3.15;;
77022;SDS011;65952;51.440;-2.054;2023-05-10T10:09:04;8.25;;;3.35;;
77022;SDS011;65952;51.440;-2.054;2023-05-10T10:11:31;9.13;;;3.17;;
77022;SDS011;65952;51.440;-2.054;2023-05-10T10:13:57;9.13;;;3.72;;
77022;SDS011;65952;51.440;-2.054;2023-05-10T10:16:23;8.35;;;3.20;;
77022;SDS011;65952;51.440;-2.054;2023-05-10T10:18:49;10.68;;;3.22;;
77022;SDS011;65952;51.440;-2.054;2023-05-10T10:30:51;12.00;;;3.50;;
77022;SDS011;65952;51.440;-2.054;2023-05-10T10:36:22;12.63;;;3.70;;
77022;SDS011;65952;51.440;-2.054;2023-05-10T10:46:59;14.38;;;3.45;;
77022;SDS011;65952;51.440;-2.054;2023-05-10T10:49:50;9.52;;;3.65;;
77022;SDS011;65952;51.440;-2.054;2023-05-10T10:57:32;13.27;;;3.65;;
77022;SDS011;65952;51.440;-2.054;2023-05-10T11:00:23;7.47;;;3.30;;
77022;SDS011;65952;51.440;-2.054;2023-05-10T11:03:12;11.55;;;4.20;;
77022;SDS011;65952;51.440;-2.054;2023-05-10T11:05:47;14.88;;;3.50;;
77022;SDS011;65952;51.440;-2.054;2023-05-10T11:10:53;11.73;;;3.25;;
77022;SDS011;65952;51.440;-2.054;2023-05-10T11:13:32;11.35;;;3.13;;
77022;SDS011;65952;51.440;-2.054;2023-05-10T11:15:57;11.68;;;3.20;;
77022;SDS011;65952;51.440;-2.054;2023-05-10T11:18:35;9.50;;;3.45;;
77022;SDS011;65952;51.440;-2.054;2023-05-10T11:21:02;9.93;;;2.92;;
77022;SDS011;65952;51.440;-2.054;2023-05-10T11:23:34;10.93;;;2.88;;
77022;SDS011;65952;51.440;-2.054;2023-05-10T11:26:12;10.30;;;2.72;;
77022;SDS011;65952;51.440;-2.054;2023-05-10T11:28:41;5.70;;;2.70;;
77022;SDS011;65952;51.440;-2.054;2023-05-10T11:31:12;6.47;;;2.65;;
77022;SDS011;65952;51.440;-2.054;2023-05-10T11:33:42;7.70;;;2.47;;
77022;SDS011;65952;51.440;-2.054;2023-05-10T11:36:19;6.72;;;2.70;;
77022;SDS011;65952;51.440;-2.054;2023-05-10T11:38:46;7.32;;;2.20;;
77022;SDS011;65952;51.440;-2.054;2023-05-10T11:41:13;8.02;;;2.67;;
77022;SDS011;65952;51.440;-2.054;2023-05-10T11:43:40;7.28;;;2.25;;
77022;SDS011;65952;51.440;-2.054;2023-05-10T11:46:06;6.88;;;2.25;;
77022;SDS011;65952;51.440;-2.054;2023-05-10T11:48:33;9.52;;;2.28;;
77022;SDS011;65952;51.440;-2.054;2023-05-10T11:50:58;5.28;;;2.10;;
77022;SDS011;65952;51.440;-2.054;2023-05-10T11:53:26;9.10;;;2.70;;
77022;SDS011;65952;51.440;-2.054;2023-05-10T11:55:52;9.68;;;2.58;;
77022;SDS011;65952;51.440;-2.054;2023-05-10T11:58:18;8.80;;;3.60;;
77022;SDS011;65952;51.440;-2.054;2023-05-10T12:00:43;5.57;;;2.45;;
77022;SDS011;65952;51.440;-2.054;2023-05-10T12:03:10;8.50;;;2.38;;
77022;SDS011;65952;51.440;-2.054;2023-05-10T12:05:36;7.30;;;2.50;;
77022;SDS011;65952;51.440;-2.054;2023-05-10T12:08:14;6.47;;;2.50;;
77022;SDS011;65952;51.440;-2.054;2023-05-10T12:10:40;5.80;;;2.30;;
77022;SDS011;65952;51.440;-2.054;2023-05-10T12:13:10;7.20;;;2.20;;
77022;SDS011;65952;51.440;-2.054;2023-05-10T12:15:38;6.72;;;2.40;;
77022;SDS011;65952;51.440;-2.054;2023-05-10T12:18:03;8.35;;;2.50;;
77022;SDS011;65952;51.440;-2.054;2023-05-10T12:20:30;6.03;;;2.10;;
77022;SDS011;65952;51.440;-2.054;2023-05-10T12:22:56;4.57;;;2.13;;
77022;SDS011;65952;51.440;-2.054;2023-05-10T12:25:24;5.85;;;2.10;;
77022;SDS011;65952;51.440;-2.054;2023-05-10T12:27:58;4.68;;;1.80;;
77022;SDS011;65952;51.440;-2.054;2023-05-10T12:30:29;8.57;;;2.00;;
77022;SDS011;65952;51.440;-2.054;2023-05-10T12:33:00;6.43;;;2.22;;
77022;SDS011;65952;51.440;-2.054;2023-05-10T12:35:29;6.70;;;2.35;;
77022;SDS011;65952;51.440;-2.054;2023-05-10T12:37:55;5.63;;;1.95;;
77022;SDS011;65952;51.440;-2.054;2023-05-10T12:40:20;4.55;;;1.77;;
77022;SDS011;65952;51.440;-2.054;2023-05-10T12:42:46;3.28;;;1.60;;
77022;SDS011;65952;51.440;-2.054;2023-05-10T12:45:11;4.63;;;1.77;;
77022;SDS011;65952;51.440;-2.054;2023-05-10T12:47:37;6.70;;;1.80;;
77022;SDS011;65952;51.440;-2.054;2023-05-10T12:50:03;6.40;;;2.10;;
77022;SDS011;65952;51.440;-2.054;2023-05-10T12:52:29;6.70;;;2.03;;
77022;SDS011;65952;51.440;-2.054;2023-05-10T12:54:57;7.55;;;2.17;;
77022;SDS011;65952;51.440;-2.054;2023-05-10T12:57:23;7.05;;;2.10;;
77022;SDS011;65952;51.440;-2.054;2023-05-10T12:59:48;6.18;;;2.08;;
77022;SDS011;65952;51.440;-2.054;2023-05-10T13:02:13;5.43;;;2.10;;
77022;SDS011;65952;51.440;-2.054;2023-05-10T13:04:40;7.82;;;2.00;;
77022;SDS011;65952;51.440;-2.054;2023-05-10T13:07:06;7.53;;;2.20;;
77022;SDS011;65952;51.440;-2.054;2023-05-10T13:09:32;6.80;;;2.00;;
77022;SDS011;65952;51.440;-2.054;2023-05-10T13:11:57;6.80;;;2.15;;
77022;SDS011;65952;51.440;-2.054;2023-05-10T13:14:23;7.43;;;2.05;;
77022;SDS011;65952;51.440;-2.054;2023-05-10T13:16:49;4.88;;;2.10;;
77022;SDS011;65952;51.440;-2.054;2023-05-10T13:19:15;4.75;;;1.77;;
77022;SDS011;65952;51.440;-2.054;2023-05-10T13:21:40;4.07;;;2.00;;
77022;SDS011;65952;51.440;-2.054;2023-05-10T13:24:06;5.22;;;1.83;;
77022;SDS011;65952;51.440;-2.054;2023-05-10T13:26:32;6.15;;;2.08;;
77022;SDS011;65952;51.440;-2.054;2023-05-10T13:28:57;4.18;;;1.70;;
77022;SDS011;65952;51.440;-2.054;2023-05-10T13:31:22;3.75;;;1.60;;
77022;SDS011;65952;51.440;-2.054;2023-05-10T13:33:48;4.80;;;1.77;;
77022;SDS011;65952;51.440;-2.054;2023-05-10T13:36:13;3.28;;;1.73;;
77022;SDS011;65952;51.440;-2.054;2023-05-10T13:38:39;8.13;;;1.90;;
77022;SDS011;65952;51.440;-2.054;2023-05-10T13:41:04;4.45;;;1.77;;
77022;SDS011;65952;51.440;-2.054;2023-05-10T13:43:30;3.97;;;1.80;;
77022;SDS011;65952;51.440;-2.054;2023-05-10T13:45:55;7.22;;;1.92;;
77022;SDS011;65952;51.440;-2.054;2023-05-10T13:48:21;6.15;;;1.73;;
77022;SDS011;65952;51.440;-2.054;2023-05-10T13:50:46;6.55;;;1.80;;
77022;SDS011;65952;51.440;-2.054;2023-05-10T13:53:12;4.80;;;1.70;;
77022;SDS011;65952;51.440;-2.054;2023-05-10T13:55:37;2.70;;;1.27;;
77022;SDS011;65952;51.440;-2.054;2023-05-10T13:58:03;2.50;;;1.30;;
77022;SDS011;65952;51.440;-2.054;2023-05-10T14:00:28;4.18;;;1.27;;
77022;SDS011;65952;51.440;-2.054;2023-05-10T14:02:53;5.63;;;1.20;;
77022;SDS011;65952;51.440;-2.054;2023-05-10T14:05:19;4.35;;;1.20;;
77022;SDS011;65952;51.440;-2.054;2023-05-10T14:07:45;3.83;;;1.33;;
77022;SDS011;65952;51.440;-2.054;2023-05-10T14:10:10;5.07;;;1.40;;
77022;SDS011;65952;51.440;-2.054;2023-05-10T14:12:35;6.50;;;1.58;;
77022;SDS011;65952;51.440;-2.054;2023-05-10T14:15:01;4.07;;;1.30;;
77022;SDS011;65952;51.440;-2.054;2023-05-10T14:17:27;4.13;;;1.55;;
77022;SDS011;65952;51.440;-2.054;2023-05-10T14:19:52;4.05;;;1.55;;
77022;SDS011;65952;51.440;-2.054;2023-05-10T14:22:18;6.93;;;1.83;;
77022;SDS011;65952;51.440;-2.054;2023-05-10T14:24:43;5.00;;;1.77;;
77022;SDS011;65952;51.440;-2.054;2023-05-10T14:27:11;7.70;;;1.65;;
77022;SDS011;65952;51.440;-2.054;2023-05-10T14:29:37;4.60;;;1.30;;
77022;SDS011;65952;51.440;-2.054;2023-05-10T14:32:03;5.22;;;1.52;;
77022;SDS011;65952;51.440;-2.054;2023-05-10T14:37:40;2.65;;;1.20;;
77022;SDS011;65952;51.440;-2.054;2023-05-10T14:40:05;4.70;;;1.25;;
77022;SDS011;65952;51.440;-2.054;2023-05-10T14:42:32;2.15;;;1.20;;
77022;SDS011;65952;51.440;-2.054;2023-05-10T14:44:57;3.88;;;1.20;;
77022;SDS011;65952;51.440;-2.054;2023-05-10T14:53:29;3.28;;;0.93;;
77022;SDS011;65952;51.440;-2.054;2023-05-10T14:55:54;2.70;;;0.95;;
77022;SDS011;65952;51.440;-2.054;2023-05-10T14:58:19;2.58;;;0.95;;
77022;SDS011;65952;51.440;-2.054;2023-05-10T15:00:45;1.38;;;0.75;;
77022;SDS011;65952;51.440;-2.054;2023-05-10T15:03:12;1.67;;;0.90;;
77022;SDS011;65952;51.440;-2.054;2023-05-10T15:05:37;2.67;;;1.02;;
77022;SDS011;65952;51.440;-2.054;2023-05-10T15:08:03;1.50;;;0.77;;
77022;SDS011;65952;51.440;-2.054;2023-05-10T15:10:30;3.92;;;1.15;;
77022;SDS011;65952;51.440;-2.054;2023-05-10T15:12:57;4.05;;;0.95;;
77022;SDS011;65952;51.440;-2.054;2023-05-10T15:15:23;1.98;;;0.95;;
77022;SDS011;65952;51.440;-2.054;2023-05-10T15:23:16;1.50;;;0.80;;
77022;SDS011;65952;51.440;-2.054;2023-05-10T15:25:42;1.23;;;0.80;;
77022;SDS011;65952;51.440;-2.054;2023-05-10T15:28:10;1.65;;;0.80;;
77022;SDS011;65952;51.440;-2.054;2023-05-10T15:30:35;4.05;;;1.13;;
77022;SDS011;65952;51.440;-2.054;2023-05-10T15:33:01;3.38;;;1.10;;
77022;SDS011;65952;51.440;-2.054;2023-05-10T15:35:26;1.27;;;0.80;;
77022;SDS011;65952;51.440;-2.054;2023-05-10T15:37:52;2.65;;;1.17;;
77022;SDS011;65952;51.440;-2.054;2023-05-10T15:40:17;1.35;;;0.85;;
77022;SDS011;65952;51.440;-2.054;2023-05-10T15:42:42;2.30;;;0.95;;
77022;SDS011;65952;51.440;-2.054;2023-05-10T15:45:08;3.80;;;0.95;;
77022;SDS011;65952;51.440;-2.054;2023-05-10T15:47:35;4.68;;;1.40;;
77022;SDS011;65952;51.440;-2.054;2023-05-10T15:50:01;3.53;;;1.15;;
77022;SDS011;65952;51.440;-2.054;2023-05-10T15:52:26;3.30;;;1.23;;
77022;SDS011;65952;51.440;-2.054;2023-05-10T15:54:52;2.80;;;1.10;;
77022;SDS011;65952;51.440;-2.054;2023-05-10T15:57:17;2.80;;;1.00;;
77022;SDS011;65952;51.440;-2.054;2023-05-10T15:59:43;1.35;;;0.93;;